sensor_id;sensor_type;location;lat;lon;timestamp;P1;durP1;ratioP1;P2;durP2;ratioP2
4313;SDS011;2170;48.794;9.182;2023-01-23T00:00:35;17.53;;;14.63;;
4313;SDS011;2170;48.794;9.182;2023-01-23T00:03:03;17.67;;;14.10;;
4313;SDS011;2170;48.794;9.182;2023-01-23T00:05:31;15.77;;;13.87;;
4313;SDS011;2170;48.794;9.182;2023-01-23T00:07:58;16.07;;;14.37;;
4313;SDS011;2170;48.794;9.182;2023-01-23T00:10:25;15.83;;;13.93;;
4313;SDS011;2170;48.794;9.182;2023-01-23T00:12:52;16.13;;;14.53;;
4313;SDS011;2170;48.794;9.182;2023-01-23T00:15:21;15.93;;;14.23;;
4313;SDS011;2170;48.794;9.182;2023-01-23T00:17:48;16.63;;;14.83;;
4313;SDS011;2170;48.794;9.182;2023-01-23T00:20:16;17.27;;;14.67;;
4313;SDS011;2170;48.794;9.182;2023-01-23T00:22:44;16.67;;;14.33;;
4313;SDS011;2170;48.794;9.182;2023-01-23T00:25:11;17.20;;;15.17;;
4313;SDS011;2170;48.794;9.182;2023-01-23T00:27:38;16.63;;;14.83;;
4313;SDS011;2170;48.794;9.182;2023-01-23T00:30:06;13.90;;;12.50;;
4313;SDS011;2170;48.794;9.182;2023-01-23T00:32:33;18.70;;;15.83;;
4313;SDS011;2170;48.794;9.182;2023-01-23T00:35:00;15.70;;;14.00;;
4313;SDS011;2170;48.794;9.182;2023-01-23T00:37:27;15.93;;;14.23;;
4313;SDS011;2170;48.794;9.182;2023-01-23T00:39:55;17.27;;;14.93;;
4313;SDS011;2170;48.794;9.182;2023-01-23T00:42:22;15.57;;;13.67;;
4313;SDS011;2170;48.794;9.182;2023-01-23T00:44:49;14.70;;;13.20;;
4313;SDS011;2170;48.794;9.182;2023-01-23T00:47:16;18.03;;;14.00;;
4313;SDS011;2170;48.794;9.182;2023-01-23T00:49:43;15.27;;;13.63;;
4313;SDS011;2170;48.794;9.182;2023-01-23T00:52:10;16.80;;;14.40;;
4313;SDS011;2170;48.794;9.182;2023-01-23T00:54:37;16.60;;;12.97;;
4313;SDS011;2170;48.794;9.182;2023-01-23T00:57:06;16.00;;;13.73;;
4313;SDS011;2170;48.794;9.182;2023-01-23T00:59:33;15.70;;;13.33;;
4313;SDS011;2170;48.794;9.182;2023-01-23T01:02:00;14.93;;;13.33;;
4313;SDS011;2170;48.794;9.182;2023-01-23T01:04:27;14.40;;;12.90;;
4313;SDS011;2170;48.794;9.182;2023-01-23T01:06:54;15.37;;;12.63;;
4313;SDS011;2170;48.794;9.182;2023-01-23T01:09:21;14.30;;;11.57;;
4313;SDS011;2170;48.794;9.182;2023-01-23T01:11:48;16.00;;;12.97;;
4313;SDS011;2170;48.794;9.182;2023-01-23T01:14:17;14.37;;;12.27;;
4313;SDS011;2170;48.794;9.182;2023-01-23T01:16:44;14.40;;;12.70;;
4313;SDS011;2170;48.794;9.182;2023-01-23T01:19:11;13.07;;;11.53;;
4313;SDS011;2170;48.794;9.182;2023-01-23T01:21:38;15.10;;;12.10;;
4313;SDS011;2170;48.794;9.182;2023-01-23T01:24:06;15.13;;;13.33;;
4313;SDS011;2170;48.794;9.182;2023-01-23T01:26:34;16.00;;;12.57;;
4313;SDS011;2170;48.794;9.182;2023-01-23T01:29:01;14.87;;;12.27;;
4313;SDS011;2170;48.794;9.182;2023-01-23T01:31:29;16.20;;;13.63;;
4313;SDS011;2170;48.794;9.182;2023-01-23T01:33:56;15.73;;;12.40;;
4313;SDS011;2170;48.794;9.182;2023-01-23T01:36:23;13.40;;;11.73;;
4313;SDS011;2170;48.794;9.182;2023-01-23T01:38:51;15.60;;;13.03;;
4313;SDS011;2170;48.794;9.182;2023-01-23T01:41:18;16.53;;;12.57;;
4313;SDS011;2170;48.794;9.182;2023-01-23T01:43:45;15.30;;;12.87;;
4313;SDS011;2170;48.794;9.182;2023-01-23T01:46:16;14.67;;;13.10;;
4313;SDS011;2170;48.794;9.182;2023-01-23T01:48:47;14.00;;;12.47;;
4313;SDS011;2170;48.794;9.182;2023-01-23T01:51:17;14.43;;;12.20;;
4313;SDS011;2170;48.794;9.182;2023-01-23T01:53:45;13.83;;;12.30;;
4313;SDS011;2170;48.794;9.182;2023-01-23T01:56:13;12.97;;;11.60;;
4313;SDS011;2170;48.794;9.182;2023-01-23T01:58:41;14.47;;;12.70;;
4313;SDS011;2170;48.794;9.182;2023-01-23T02:01:09;14.53;;;12.23;;
4313;SDS011;2170;48.794;9.182;2023-01-23T02:03:37;15.53;;;12.23;;
4313;SDS011;2170;48.794;9.182;2023-01-23T02:06:05;16.63;;;14.90;;
4313;SDS011;2170;48.794;9.182;2023-01-23T02:08:34;12.63;;;11.33;;
4313;SDS011;2170;48.794;9.182;2023-01-23T02:11:03;15.90;;;13.07;;
4313;SDS011;2170;48.794;9.182;2023-01-23T02:13:31;15.87;;;13.63;;
4313;SDS011;2170;48.794;9.182;2023-01-23T02:16:01;14.03;;;12.53;;
4313;SDS011;2170;48.794;9.182;2023-01-23T02:18:29;12.43;;;11.13;;
4313;SDS011;2170;48.794;9.182;2023-01-23T02:20:57;14.60;;;13.03;;
4313;SDS011;2170;48.794;9.182;2023-01-23T02:23:27;15.23;;;13.63;;
4313;SDS011;2170;48.794;9.182;2023-01-23T02:25:58;14.37;;;12.30;;
4313;SDS011;2170;48.794;9.182;2023-01-23T02:28:35;15.40;;;13.50;;
4313;SDS011;2170;48.794;9.182;2023-01-23T02:31:02;15.70;;;13.20;;
4313;SDS011;2170;48.794;9.182;2023-01-23T02:33:43;15.60;;;13.60;;
4313;SDS011;2170;48.794;9.182;2023-01-23T02:36:10;15.77;;;13.40;;
4313;SDS011;2170;48.794;9.182;2023-01-23T02:38:39;14.50;;;13.00;;
4313;SDS011;2170;48.794;9.182;2023-01-23T02:41:09;15.77;;;13.50;;
4313;SDS011;2170;48.794;9.182;2023-01-23T02:43:38;16.33;;;12.47;;
4313;SDS011;2170;48.794;9.182;2023-01-23T02:46:06;16.53;;;12.97;;
4313;SDS011;2170;48.794;9.182;2023-01-23T02:48:34;16.17;;;13.13;;
4313;SDS011;2170;48.794;9.182;2023-01-23T02:51:01;16.70;;;14.17;;
4313;SDS011;2170;48.794;9.182;2023-01-23T02:53:28;16.73;;;13.57;;
4313;SDS011;2170;48.794;9.182;2023-01-23T02:55:55;16.53;;;13.93;;
4313;SDS011;2170;48.794;9.182;2023-01-23T02:58:26;15.23;;;13.40;;
4313;SDS011;2170;48.794;9.182;2023-01-23T03:01:11;16.33;;;13.70;;
4313;SDS011;2170;48.794;9.182;2023-01-23T03:03:38;16.83;;;13.10;;
4313;SDS011;2170;48.794;9.182;2023-01-23T03:06:06;15.80;;;13.10;;
4313;SDS011;2170;48.794;9.182;2023-01-23T03:08:33;16.77;;;13.00;;
4313;SDS011;2170;48.794;9.182;2023-01-23T03:11:11;15.23;;;12.70;;
4313;SDS011;2170;48.794;9.182;2023-01-23T03:13:39;19.80;;;14.80;;
4313;SDS011;2170;48.794;9.182;2023-01-23T03:16:06;16.57;;;14.80;;
4313;SDS011;2170;48.794;9.182;2023-01-23T03:18:34;15.73;;;12.90;;
4313;SDS011;2170;48.794;9.182;2023-01-23T03:21:01;16.70;;;13.80;;
4313;SDS011;2170;48.794;9.182;2023-01-23T03:23:28;18.43;;;15.43;;
4313;SDS011;2170;48.794;9.182;2023-01-23T03:25:56;17.33;;;14.20;;
4313;SDS011;2170;48.794;9.182;2023-01-23T03:28:23;17.73;;;14.63;;
4313;SDS011;2170;48.794;9.182;2023-01-23T03:31:09;22.13;;;14.97;;
4313;SDS011;2170;48.794;9.182;2023-01-23T03:33:37;19.67;;;14.80;;
4313;SDS011;2170;48.794;9.182;2023-01-23T03:36:07;18.40;;;15.27;;
4313;SDS011;2170;48.794;9.182;2023-01-23T03:38:34;17.43;;;14.37;;
4313;SDS011;2170;48.794;9.182;2023-01-23T03:41:01;21.53;;;15.00;;
4313;SDS011;2170;48.794;9.182;2023-01-23T03:43:46;19.27;;;16.07;;
4313;SDS011;2170;48.794;9.182;2023-01-23T03:46:14;16.73;;;13.60;;
4313;SDS011;2170;48.794;9.182;2023-01-23T03:48:41;16.70;;;14.40;;
4313;SDS011;2170;48.794;9.182;2023-01-23T03:51:08;17.23;;;15.03;;
4313;SDS011;2170;48.794;9.182;2023-01-23T03:53:35;17.03;;;15.13;;
4313;SDS011;2170;48.794;9.182;2023-01-23T03:56:02;17.30;;;14.33;;
4313;SDS011;2170;48.794;9.182;2023-01-23T03:58:30;19.87;;;15.23;;
4313;SDS011;2170;48.794;9.182;2023-01-23T04:00:57;18.60;;;14.87;;
4313;SDS011;2170;48.794;9.182;2023-01-23T04:03:28;20.87;;;15.80;;
4313;SDS011;2170;48.794;9.182;2023-01-23T04:05:55;19.27;;;15.43;;
4313;SDS011;2170;48.794;9.182;2023-01-23T04:08:23;20.67;;;15.40;;
4313;SDS011;2170;48.794;9.182;2023-01-23T04:10:50;21.77;;;16.70;;
4313;SDS011;2170;48.794;9.182;2023-01-23T04:13:17;20.67;;;15.80;;
4313;SDS011;2170;48.794;9.182;2023-01-23T04:15:44;18.80;;;14.90;;
4313;SDS011;2170;48.794;9.182;2023-01-23T04:18:11;19.73;;;15.10;;
4313;SDS011;2170;48.794;9.182;2023-01-23T04:20:39;18.50;;;15.37;;
4313;SDS011;2170;48.794;9.182;2023-01-23T04:23:06;18.77;;;15.23;;
4313;SDS011;2170;48.794;9.182;2023-01-23T04:25:33;18.23;;;14.47;;
4313;SDS011;2170;48.794;9.182;2023-01-23T04:28:00;19.70;;;15.60;;
4313;SDS011;2170;48.794;9.182;2023-01-23T04:30:27;20.80;;;15.00;;
4313;SDS011;2170;48.794;9.182;2023-01-23T04:32:54;18.87;;;15.40;;
4313;SDS011;2170;48.794;9.182;2023-01-23T04:35:21;17.77;;;15.10;;
4313;SDS011;2170;48.794;9.182;2023-01-23T04:37:50;20.20;;;15.73;;
4313;SDS011;2170;48.794;9.182;2023-01-23T04:40:17;19.10;;;15.07;;
4313;SDS011;2170;48.794;9.182;2023-01-23T04:42:44;23.73;;;17.43;;
4313;SDS011;2170;48.794;9.182;2023-01-23T04:45:11;17.60;;;13.80;;
4313;SDS011;2170;48.794;9.182;2023-01-23T04:47:38;17.97;;;14.30;;
4313;SDS011;2170;48.794;9.182;2023-01-23T04:50:05;16.97;;;14.17;;
4313;SDS011;2170;48.794;9.182;2023-01-23T04:52:32;21.20;;;15.87;;
4313;SDS011;2170;48.794;9.182;2023-01-23T04:55:01;19.47;;;15.03;;
4313;SDS011;2170;48.794;9.182;2023-01-23T04:57:28;19.40;;;14.73;;
4313;SDS011;2170;48.794;9.182;2023-01-23T04:59:55;19.50;;;15.63;;
4313;SDS011;2170;48.794;9.182;2023-01-23T05:02:22;19.50;;;15.00;;
4313;SDS011;2170;48.794;9.182;2023-01-23T05:04:49;19.13;;;15.77;;
4313;SDS011;2170;48.794;9.182;2023-01-23T05:07:16;20.03;;;15.03;;
4313;SDS011;2170;48.794;9.182;2023-01-23T05:09:43;20.10;;;15.80;;
4313;SDS011;2170;48.794;9.182;2023-01-23T05:12:11;19.40;;;15.07;;
4313;SDS011;2170;48.794;9.182;2023-01-23T05:14:38;19.80;;;15.60;;
4313;SDS011;2170;48.794;9.182;2023-01-23T05:17:05;18.53;;;14.50;;
4313;SDS011;2170;48.794;9.182;2023-01-23T05:19:32;20.83;;;16.10;;
4313;SDS011;2170;48.794;9.182;2023-01-23T05:21:59;20.07;;;15.17;;
4313;SDS011;2170;48.794;9.182;2023-01-23T05:24:26;19.77;;;15.60;;
4313;SDS011;2170;48.794;9.182;2023-01-23T05:26:54;19.10;;;16.30;;
4313;SDS011;2170;48.794;9.182;2023-01-23T05:29:22;22.80;;;16.77;;
4313;SDS011;2170;48.794;9.182;2023-01-23T05:31:49;19.03;;;15.07;;
4313;SDS011;2170;48.794;9.182;2023-01-23T05:34:16;19.27;;;16.00;;
4313;SDS011;2170;48.794;9.182;2023-01-23T05:36:43;16.67;;;14.53;;
4313;SDS011;2170;48.794;9.182;2023-01-23T05:39:10;18.47;;;14.90;;
4313;SDS011;2170;48.794;9.182;2023-01-23T05:41:37;21.17;;;15.60;;
4313;SDS011;2170;48.794;9.182;2023-01-23T05:44:04;20.00;;;14.70;;
4313;SDS011;2170;48.794;9.182;2023-01-23T05:46:32;19.83;;;16.00;;
4313;SDS011;2170;48.794;9.182;2023-01-23T05:49:00;19.77;;;15.87;;
4313;SDS011;2170;48.794;9.182;2023-01-23T05:51:27;18.60;;;14.60;;
4313;SDS011;2170;48.794;9.182;2023-01-23T05:53:56;19.03;;;15.60;;
4313;SDS011;2170;48.794;9.182;2023-01-23T05:56:23;21.30;;;16.37;;
4313;SDS011;2170;48.794;9.182;2023-01-23T05:58:50;20.37;;;14.80;;
4313;SDS011;2170;48.794;9.182;2023-01-23T06:01:17;20.73;;;15.47;;
4313;SDS011;2170;48.794;9.182;2023-01-23T06:03:46;18.23;;;14.30;;
4313;SDS011;2170;48.794;9.182;2023-01-23T06:06:13;18.13;;;13.70;;
4313;SDS011;2170;48.794;9.182;2023-01-23T06:08:40;19.60;;;14.80;;
4313;SDS011;2170;48.794;9.182;2023-01-23T06:11:07;20.00;;;14.93;;
4313;SDS011;2170;48.794;9.182;2023-01-23T06:13:34;19.90;;;15.70;;
4313;SDS011;2170;48.794;9.182;2023-01-23T06:16:02;17.70;;;14.30;;
4313;SDS011;2170;48.794;9.182;2023-01-23T06:18:29;21.87;;;15.27;;
4313;SDS011;2170;48.794;9.182;2023-01-23T06:20:58;22.50;;;15.70;;
4313;SDS011;2170;48.794;9.182;2023-01-23T06:23:25;20.13;;;15.20;;
4313;SDS011;2170;48.794;9.182;2023-01-23T06:25:52;19.17;;;14.63;;
4313;SDS011;2170;48.794;9.182;2023-01-23T06:28:19;19.40;;;14.47;;
4313;SDS011;2170;48.794;9.182;2023-01-23T06:30:47;18.67;;;15.50;;
4313;SDS011;2170;48.794;9.182;2023-01-23T06:33:14;19.30;;;14.37;;
4313;SDS011;2170;48.794;9.182;2023-01-23T06:35:41;22.53;;;15.37;;
4313;SDS011;2170;48.794;9.182;2023-01-23T06:38:09;19.50;;;14.70;;
4313;SDS011;2170;48.794;9.182;2023-01-23T06:40:36;21.57;;;16.30;;
4313;SDS011;2170;48.794;9.182;2023-01-23T06:43:03;20.73;;;15.20;;
4313;SDS011;2170;48.794;9.182;2023-01-23T06:45:30;19.93;;;15.30;;
4313;SDS011;2170;48.794;9.182;2023-01-23T06:47:57;20.37;;;15.40;;
4313;SDS011;2170;48.794;9.182;2023-01-23T06:50:24;21.07;;;15.53;;
4313;SDS011;2170;48.794;9.182;2023-01-23T06:52:51;18.70;;;14.40;;
4313;SDS011;2170;48.794;9.182;2023-01-23T06:55:20;19.60;;;14.87;;
4313;SDS011;2170;48.794;9.182;2023-01-23T06:57:47;20.40;;;14.10;;
4313;SDS011;2170;48.794;9.182;2023-01-23T07:00:14;20.10;;;15.53;;
4313;SDS011;2170;48.794;9.182;2023-01-23T07:02:41;19.77;;;14.37;;
4313;SDS011;2170;48.794;9.182;2023-01-23T07:05:08;17.50;;;13.83;;
4313;SDS011;2170;48.794;9.182;2023-01-23T07:07:35;22.20;;;15.40;;
4313;SDS011;2170;48.794;9.182;2023-01-23T07:10:02;22.60;;;16.23;;
4313;SDS011;2170;48.794;9.182;2023-01-23T07:12:31;18.90;;;14.30;;
4313;SDS011;2170;48.794;9.182;2023-01-23T07:14:58;24.70;;;15.83;;
4313;SDS011;2170;48.794;9.182;2023-01-23T07:17:25;22.50;;;15.63;;
4313;SDS011;2170;48.794;9.182;2023-01-23T07:19:52;19.43;;;14.90;;
4313;SDS011;2170;48.794;9.182;2023-01-23T07:22:20;21.60;;;16.13;;
4313;SDS011;2170;48.794;9.182;2023-01-23T07:24:47;21.33;;;16.00;;
4313;SDS011;2170;48.794;9.182;2023-01-23T07:27:14;19.47;;;14.83;;
4313;SDS011;2170;48.794;9.182;2023-01-23T07:29:43;20.97;;;16.33;;
4313;SDS011;2170;48.794;9.182;2023-01-23T07:32:10;23.60;;;16.70;;
4313;SDS011;2170;48.794;9.182;2023-01-23T07:34:37;21.07;;;15.10;;
4313;SDS011;2170;48.794;9.182;2023-01-23T07:37:04;21.67;;;15.50;;
4313;SDS011;2170;48.794;9.182;2023-01-23T07:39:31;18.60;;;14.53;;
4313;SDS011;2170;48.794;9.182;2023-01-23T07:41:58;21.80;;;16.37;;
4313;SDS011;2170;48.794;9.182;2023-01-23T07:44:25;19.90;;;15.90;;
4313;SDS011;2170;48.794;9.182;2023-01-23T07:46:54;23.80;;;16.93;;
4313;SDS011;2170;48.794;9.182;2023-01-23T07:49:21;22.20;;;15.20;;
4313;SDS011;2170;48.794;9.182;2023-01-23T07:51:48;22.10;;;16.10;;
4313;SDS011;2170;48.794;9.182;2023-01-23T07:54:15;20.87;;;14.83;;
4313;SDS011;2170;48.794;9.182;2023-01-23T07:56:42;21.80;;;16.70;;
4313;SDS011;2170;48.794;9.182;2023-01-23T07:59:10;22.20;;;15.07;;
4313;SDS011;2170;48.794;9.182;2023-01-23T08:01:37;22.20;;;16.27;;
4313;SDS011;2170;48.794;9.182;2023-01-23T08:04:05;23.00;;;16.37;;
4313;SDS011;2170;48.794;9.182;2023-01-23T08:06:32;23.10;;;16.67;;
4313;SDS011;2170;48.794;9.182;2023-01-23T08:09:00;23.20;;;15.70;;
4313;SDS011;2170;48.794;9.182;2023-01-23T08:11:27;19.63;;;15.27;;
4313;SDS011;2170;48.794;9.182;2023-01-23T08:13:54;25.43;;;17.63;;
4313;SDS011;2170;48.794;9.182;2023-01-23T08:16:21;23.37;;;16.53;;
4313;SDS011;2170;48.794;9.182;2023-01-23T08:18:48;22.50;;;15.87;;
4313;SDS011;2170;48.794;9.182;2023-01-23T08:21:17;24.20;;;16.40;;
4313;SDS011;2170;48.794;9.182;2023-01-23T08:23:44;25.63;;;18.23;;
4313;SDS011;2170;48.794;9.182;2023-01-23T08:26:11;21.83;;;16.50;;
4313;SDS011;2170;48.794;9.182;2023-01-23T08:28:39;25.30;;;16.70;;
4313;SDS011;2170;48.794;9.182;2023-01-23T08:31:07;25.70;;;17.73;;
4313;SDS011;2170;48.794;9.182;2023-01-23T08:33:35;27.17;;;17.23;;
4313;SDS011;2170;48.794;9.182;2023-01-23T08:36:03;26.07;;;17.10;;
4313;SDS011;2170;48.794;9.182;2023-01-23T08:38:31;26.20;;;18.27;;
4313;SDS011;2170;48.794;9.182;2023-01-23T08:40:59;28.27;;;19.67;;
4313;SDS011;2170;48.794;9.182;2023-01-23T08:43:26;25.73;;;17.93;;
4313;SDS011;2170;48.794;9.182;2023-01-23T08:45:54;27.13;;;17.37;;
4313;SDS011;2170;48.794;9.182;2023-01-23T08:48:22;25.90;;;17.97;;
4313;SDS011;2170;48.794;9.182;2023-01-23T08:50:49;24.10;;;16.87;;
4313;SDS011;2170;48.794;9.182;2023-01-23T08:53:17;25.70;;;17.83;;
4313;SDS011;2170;48.794;9.182;2023-01-23T08:55:45;23.40;;;17.07;;
4313;SDS011;2170;48.794;9.182;2023-01-23T08:58:12;25.00;;;17.03;;
4313;SDS011;2170;48.794;9.182;2023-01-23T09:00:39;20.67;;;15.80;;
4313;SDS011;2170;48.794;9.182;2023-01-23T09:03:06;22.40;;;16.00;;
4313;SDS011;2170;48.794;9.182;2023-01-23T09:05:34;18.60;;;13.77;;
4313;SDS011;2170;48.794;9.182;2023-01-23T09:08:01;18.63;;;14.17;;
4313;SDS011;2170;48.794;9.182;2023-01-23T09:10:28;19.07;;;13.87;;
4313;SDS011;2170;48.794;9.182;2023-01-23T09:12:56;17.63;;;13.70;;
4313;SDS011;2170;48.794;9.182;2023-01-23T09:15:23;22.37;;;14.67;;
4313;SDS011;2170;48.794;9.182;2023-01-23T09:17:50;17.67;;;13.00;;
4313;SDS011;2170;48.794;9.182;2023-01-23T09:20:17;17.53;;;13.03;;
4313;SDS011;2170;48.794;9.182;2023-01-23T09:22:44;22.73;;;14.30;;
4313;SDS011;2170;48.794;9.182;2023-01-23T09:25:12;15.93;;;12.70;;
4313;SDS011;2170;48.794;9.182;2023-01-23T09:27:39;16.90;;;13.57;;
4313;SDS011;2170;48.794;9.182;2023-01-23T09:30:08;15.83;;;11.30;;
4313;SDS011;2170;48.794;9.182;2023-01-23T09:32:35;15.27;;;11.93;;
4313;SDS011;2170;48.794;9.182;2023-01-23T09:35:03;17.27;;;12.47;;
4313;SDS011;2170;48.794;9.182;2023-01-23T09:37:30;13.67;;;10.73;;
4313;SDS011;2170;48.794;9.182;2023-01-23T09:40:18;17.47;;;12.83;;
4313;SDS011;2170;48.794;9.182;2023-01-23T09:42:47;17.70;;;12.83;;
4313;SDS011;2170;48.794;9.182;2023-01-23T09:45:16;15.90;;;11.30;;
4313;SDS011;2170;48.794;9.182;2023-01-23T09:47:46;14.10;;;10.93;;
4313;SDS011;2170;48.794;9.182;2023-01-23T09:50:19;15.07;;;11.83;;
4313;SDS011;2170;48.794;9.182;2023-01-23T09:52:47;14.63;;;11.57;;
4313;SDS011;2170;48.794;9.182;2023-01-23T09:55:20;16.53;;;12.37;;
4313;SDS011;2170;48.794;9.182;2023-01-23T09:57:50;15.60;;;12.20;;
4313;SDS011;2170;48.794;9.182;2023-01-23T10:00:21;15.03;;;12.60;;
4313;SDS011;2170;48.794;9.182;2023-01-23T10:02:49;14.60;;;11.17;;
4313;SDS011;2170;48.794;9.182;2023-01-23T10:05:18;14.73;;;12.33;;
4313;SDS011;2170;48.794;9.182;2023-01-23T10:07:58;15.50;;;12.40;;
4313;SDS011;2170;48.794;9.182;2023-01-23T10:13:32;18.40;;;13.50;;
4313;SDS011;2170;48.794;9.182;2023-01-23T10:16:07;16.03;;;11.90;;
4313;SDS011;2170;48.794;9.182;2023-01-23T10:18:39;14.67;;;12.40;;
4313;SDS011;2170;48.794;9.182;2023-01-23T10:21:11;14.97;;;11.67;;
4313;SDS011;2170;48.794;9.182;2023-01-23T10:23:45;16.63;;;12.27;;
4313;SDS011;2170;48.794;9.182;2023-01-23T10:26:14;14.90;;;12.07;;
4313;SDS011;2170;48.794;9.182;2023-01-23T10:28:41;17.00;;;12.63;;
4313;SDS011;2170;48.794;9.182;2023-01-23T10:31:11;16.00;;;11.70;;
4313;SDS011;2170;48.794;9.182;2023-01-23T10:33:41;17.33;;;13.30;;
4313;SDS011;2170;48.794;9.182;2023-01-23T10:36:14;15.20;;;11.97;;
4313;SDS011;2170;48.794;9.182;2023-01-23T10:38:44;13.60;;;11.70;;
4313;SDS011;2170;48.794;9.182;2023-01-23T10:41:13;14.63;;;12.63;;
4313;SDS011;2170;48.794;9.182;2023-01-23T10:43:44;16.37;;;11.57;;
4313;SDS011;2170;48.794;9.182;2023-01-23T10:46:14;14.60;;;12.33;;
4313;SDS011;2170;48.794;9.182;2023-01-23T10:48:42;15.27;;;12.33;;
4313;SDS011;2170;48.794;9.182;2023-01-23T10:51:26;16.43;;;12.47;;
4313;SDS011;2170;48.794;9.182;2023-01-23T10:56:46;16.20;;;12.27;;
4313;SDS011;2170;48.794;9.182;2023-01-23T10:59:18;17.37;;;12.60;;
4313;SDS011;2170;48.794;9.182;2023-01-23T11:01:54;16.43;;;13.33;;
4313;SDS011;2170;48.794;9.182;2023-01-23T11:04:23;15.93;;;12.40;;
4313;SDS011;2170;48.794;9.182;2023-01-23T11:06:59;16.97;;;12.60;;
4313;SDS011;2170;48.794;9.182;2023-01-23T11:09:26;19.53;;;13.50;;
4313;SDS011;2170;48.794;9.182;2023-01-23T11:11:58;17.33;;;13.27;;
4313;SDS011;2170;48.794;9.182;2023-01-23T11:14:25;17.13;;;12.50;;
4313;SDS011;2170;48.794;9.182;2023-01-23T11:17:01;15.53;;;11.93;;
4313;SDS011;2170;48.794;9.182;2023-01-23T11:19:30;16.50;;;12.30;;
4313;SDS011;2170;48.794;9.182;2023-01-23T11:21:58;14.90;;;12.00;;
4313;SDS011;2170;48.794;9.182;2023-01-23T11:24:29;16.20;;;12.30;;
4313;SDS011;2170;48.794;9.182;2023-01-23T11:26:58;15.83;;;12.63;;
4313;SDS011;2170;48.794;9.182;2023-01-23T11:29:26;16.87;;;12.87;;
4313;SDS011;2170;48.794;9.182;2023-01-23T11:31:54;15.90;;;11.93;;
4313;SDS011;2170;48.794;9.182;2023-01-23T11:34:26;17.27;;;12.47;;
4313;SDS011;2170;48.794;9.182;2023-01-23T11:36:56;15.87;;;12.60;;
4313;SDS011;2170;48.794;9.182;2023-01-23T11:39:33;18.37;;;13.17;;
4313;SDS011;2170;48.794;9.182;2023-01-23T11:42:02;16.80;;;12.37;;
4313;SDS011;2170;48.794;9.182;2023-01-23T11:44:29;15.30;;;11.80;;
4313;SDS011;2170;48.794;9.182;2023-01-23T11:49:57;16.60;;;12.33;;
4313;SDS011;2170;48.794;9.182;2023-01-23T11:52:30;18.17;;;14.07;;
4313;SDS011;2170;48.794;9.182;2023-01-23T11:57:46;19.30;;;13.70;;
4313;SDS011;2170;48.794;9.182;2023-01-23T12:00:20;17.50;;;12.10;;
4313;SDS011;2170;48.794;9.182;2023-01-23T12:05:50;16.80;;;12.93;;
4313;SDS011;2170;48.794;9.182;2023-01-23T12:08:19;21.23;;;15.37;;
4313;SDS011;2170;48.794;9.182;2023-01-23T12:10:50;21.13;;;14.90;;
4313;SDS011;2170;48.794;9.182;2023-01-23T12:13:23;19.00;;;14.40;;
4313;SDS011;2170;48.794;9.182;2023-01-23T12:15:57;18.70;;;13.60;;
4313;SDS011;2170;48.794;9.182;2023-01-23T12:18:29;16.93;;;13.53;;
4313;SDS011;2170;48.794;9.182;2023-01-23T12:21:04;15.83;;;12.63;;
4313;SDS011;2170;48.794;9.182;2023-01-23T12:23:43;18.30;;;13.57;;
4313;SDS011;2170;48.794;9.182;2023-01-23T12:26:13;14.97;;;11.97;;
4313;SDS011;2170;48.794;9.182;2023-01-23T12:31:28;20.20;;;15.40;;
4313;SDS011;2170;48.794;9.182;2023-01-23T12:39:49;19.30;;;13.67;;
4313;SDS011;2170;48.794;9.182;2023-01-23T12:42:20;16.63;;;13.13;;
4313;SDS011;2170;48.794;9.182;2023-01-23T12:44:52;18.90;;;14.10;;
4313;SDS011;2170;48.794;9.182;2023-01-23T12:47:21;18.10;;;14.50;;
4313;SDS011;2170;48.794;9.182;2023-01-23T12:49:52;19.07;;;14.07;;
4313;SDS011;2170;48.794;9.182;2023-01-23T12:52:20;17.90;;;13.93;;
4313;SDS011;2170;48.794;9.182;2023-01-23T12:54:50;15.23;;;12.93;;
4313;SDS011;2170;48.794;9.182;2023-01-23T12:57:18;18.97;;;13.13;;
4313;SDS011;2170;48.794;9.182;2023-01-23T13:00:00;16.90;;;12.47;;
4313;SDS011;2170;48.794;9.182;2023-01-23T13:02:31;17.53;;;13.60;;
4313;SDS011;2170;48.794;9.182;2023-01-23T13:05:04;16.37;;;12.70;;
4313;SDS011;2170;48.794;9.182;2023-01-23T13:07:37;16.43;;;12.63;;
4313;SDS011;2170;48.794;9.182;2023-01-23T13:10:23;18.57;;;12.93;;
4313;SDS011;2170;48.794;9.182;2023-01-23T13:12:52;20.80;;;15.40;;
4313;SDS011;2170;48.794;9.182;2023-01-23T13:15:22;16.23;;;11.90;;
4313;SDS011;2170;48.794;9.182;2023-01-23T13:17:50;19.03;;;12.77;;
4313;SDS011;2170;48.794;9.182;2023-01-23T13:20:18;17.33;;;13.13;;
4313;SDS011;2170;48.794;9.182;2023-01-23T13:23:23;16.07;;;11.63;;
4313;SDS011;2170;48.794;9.182;2023-01-23T13:26:10;17.17;;;12.47;;
4313;SDS011;2170;48.794;9.182;2023-01-23T13:28:39;17.30;;;12.33;;
4313;SDS011;2170;48.794;9.182;2023-01-23T13:31:06;19.10;;;13.67;;
4313;SDS011;2170;48.794;9.182;2023-01-23T13:33:48;18.60;;;12.80;;
4313;SDS011;2170;48.794;9.182;2023-01-23T13:39:17;16.10;;;11.90;;
4313;SDS011;2170;48.794;9.182;2023-01-23T13:41:48;14.40;;;11.50;;
4313;SDS011;2170;48.794;9.182;2023-01-23T13:44:16;17.57;;;12.83;;
4313;SDS011;2170;48.794;9.182;2023-01-23T13:46:46;13.97;;;11.63;;
4313;SDS011;2170;48.794;9.182;2023-01-23T13:49:20;14.93;;;11.67;;
4313;SDS011;2170;48.794;9.182;2023-01-23T13:52:11;13.67;;;10.90;;
4313;SDS011;2170;48.794;9.182;2023-01-23T13:54:54;14.40;;;11.57;;
4313;SDS011;2170;48.794;9.182;2023-01-23T13:57:39;18.63;;;12.13;;
4313;SDS011;2170;48.794;9.182;2023-01-23T14:00:12;15.13;;;12.10;;
4313;SDS011;2170;48.794;9.182;2023-01-23T14:02:40;17.50;;;12.50;;
4313;SDS011;2170;48.794;9.182;2023-01-23T14:05:27;14.77;;;12.50;;
4313;SDS011;2170;48.794;9.182;2023-01-23T14:07:59;13.43;;;11.53;;
4313;SDS011;2170;48.794;9.182;2023-01-23T14:10:27;15.00;;;11.77;;
4313;SDS011;2170;48.794;9.182;2023-01-23T14:13:03;14.60;;;10.90;;
4313;SDS011;2170;48.794;9.182;2023-01-23T14:15:30;16.77;;;11.77;;
4313;SDS011;2170;48.794;9.182;2023-01-23T14:18:24;15.23;;;11.10;;
4313;SDS011;2170;48.794;9.182;2023-01-23T14:20:53;17.97;;;13.40;;
4313;SDS011;2170;48.794;9.182;2023-01-23T14:23:25;16.33;;;12.53;;
4313;SDS011;2170;48.794;9.182;2023-01-23T14:25:53;15.77;;;11.90;;
4313;SDS011;2170;48.794;9.182;2023-01-23T14:28:21;15.30;;;12.00;;
4313;SDS011;2170;48.794;9.182;2023-01-23T14:30:55;15.47;;;12.43;;
4313;SDS011;2170;48.794;9.182;2023-01-23T14:33:23;15.07;;;12.80;;
4313;SDS011;2170;48.794;9.182;2023-01-23T14:35:50;15.60;;;11.10;;
4313;SDS011;2170;48.794;9.182;2023-01-23T14:38:20;20.17;;;12.40;;
4313;SDS011;2170;48.794;9.182;2023-01-23T14:40:48;16.87;;;12.00;;
4313;SDS011;2170;48.794;9.182;2023-01-23T14:43:16;13.77;;;11.70;;
4313;SDS011;2170;48.794;9.182;2023-01-23T14:45:46;16.43;;;12.20;;
4313;SDS011;2170;48.794;9.182;2023-01-23T14:48:14;14.00;;;11.10;;
4313;SDS011;2170;48.794;9.182;2023-01-23T14:50:42;14.77;;;11.53;;
4313;SDS011;2170;48.794;9.182;2023-01-23T14:53:13;16.70;;;12.60;;
4313;SDS011;2170;48.794;9.182;2023-01-23T14:55:43;15.47;;;12.23;;
4313;SDS011;2170;48.794;9.182;2023-01-23T14:58:12;16.23;;;12.80;;
4313;SDS011;2170;48.794;9.182;2023-01-23T15:00:40;16.70;;;13.27;;
4313;SDS011;2170;48.794;9.182;2023-01-23T15:03:11;14.00;;;11.63;;
4313;SDS011;2170;48.794;9.182;2023-01-23T15:05:38;13.37;;;11.30;;
4313;SDS011;2170;48.794;9.182;2023-01-23T15:08:14;15.00;;;11.93;;
4313;SDS011;2170;48.794;9.182;2023-01-23T15:10:45;15.60;;;12.17;;
4313;SDS011;2170;48.794;9.182;2023-01-23T15:13:13;14.60;;;12.00;;
4313;SDS011;2170;48.794;9.182;2023-01-23T15:15:47;17.60;;;12.37;;
4313;SDS011;2170;48.794;9.182;2023-01-23T15:18:20;14.93;;;12.23;;
4313;SDS011;2170;48.794;9.182;2023-01-23T15:20:51;14.27;;;12.70;;
4313;SDS011;2170;48.794;9.182;2023-01-23T15:23:24;14.30;;;11.80;;
4313;SDS011;2170;48.794;9.182;2023-01-23T15:26:07;17.07;;;13.73;;